Time,TemperatureF,DewpointF,PressureIn,WindDirection,WindDirectionDegrees,WindSpeedMPH,WindSpeedGustMPH,Humidity,HourlyPrecipIn,Conditions,Clouds,dailyrainin,SolarRadiationWatts/m^2,SoftwareType,DateUTC
2013-06-30 00:02:00,84.0,55.0,-100.00,ENE,60,6.0,7.0,37,0.00,,,0.00,0.000000,,2013-06-30 07:02:00,
2013-06-30 00:12:00,84.0,55.0,-100.00,ENE,60,6.0,7.0,37,0.00,,,0.00,0.000000,,2013-06-30 07:12:00,
2013-06-30 00:44:00,83.0,55.0,-100.00,ENE,71,5.0,7.0,38,0.00,,,0.00,0.000000,,2013-06-30 07:44:00,
2013-06-30 00:53:00,83.0,55.0,-100.00,ENE,71,5.0,7.0,38,0.00,,,0.00,0.000000,,2013-06-30 07:53:00,
2013-06-30 01:02:00,83.0,55.0,-100.00,ENE,71,5.0,7.0,38,0.00,,,0.00,0.000000,,2013-06-30 08:02:00,
2013-06-30 01:11:00,83.0,55.0,-100.00,ENE,71,5.0,7.0,38,0.00,,,0.00,0.000000,,2013-06-30 08:11:00,
2013-06-30 01:42:00,83.0,56.0,-100.00,ENE,71,5.0,8.0,40,0.00,,,0.00,0.000000,,2013-06-30 08:42:00,
2013-06-30 01:53:00,83.0,56.0,-100.00,ENE,71,5.0,8.0,40,0.00,,,0.00,0.000000,,2013-06-30 08:53:00,
2013-06-30 02:01:00,83.0,56.0,-100.00,ENE,71,5.0,8.0,40,0.00,,,0.00,0.000000,,2013-06-30 09:01:00,
2013-06-30 02:11:00,83.0,56.0,-100.00,ENE,71,5.0,8.0,40,0.00,,,0.00,0.000000,,2013-06-30 09:11:00,
2013-06-30 02:43:00,81.0,54.0,-100.00,ENE,63,1.0,6.0,40,0.00,,,0.00,0.000000,,2013-06-30 09:43:00,
2013-06-30 02:53:00,81.0,54.0,-100.00,ENE,63,1.0,6.0,40,0.00,,,0.00,0.000000,,2013-06-30 09:53:00,
2013-06-30 03:02:00,81.0,54.0,-100.00,ENE,63,1.0,6.0,40,0.00,,,0.00,0.000000,,2013-06-30 10:02:00,
2013-06-30 03:11:00,81.0,54.0,-100.00,ENE,63,1.0,6.0,40,0.00,,,0.00,0.000000,,2013-06-30 10:11:00,
2013-06-30 03:34:00,80.0,55.0,-100.00,NE,40,3.0,5.0,42,0.00,,,0.00,0.000000,,2013-06-30 10:34:00,
2013-06-30 03:43:00,80.0,55.0,-100.00,NE,40,3.0,5.0,42,0.00,,,0.00,0.000000,,2013-06-30 10:43:00,
2013-06-30 03:53:00,80.0,55.0,-100.00,NE,40,3.0,5.0,42,0.00,,,0.00,0.000000,,2013-06-30 10:53:00,
2013-06-30 04:02:00,80.0,55.0,-100.00,NE,40,3.0,5.0,42,0.00,,,0.00,0.000000,,2013-06-30 11:02:00,
2013-06-30 04:11:00,80.0,55.0,-100.00,NE,40,3.0,5.0,42,0.00,,,0.00,0.000000,,2013-06-30 11:11:00,
2013-06-30 04:43:00,80.0,55.0,-100.00,ENE,59,3.0,6.0,43,0.00,,,0.00,0.000000,,2013-06-30 11:43:00,
2013-06-30 04:53:00,80.0,55.0,-100.00,ENE,59,3.0,6.0,43,0.00,,,0.00,0.000000,,2013-06-30 11:53:00,
2013-06-30 05:01:00,80.0,55.0,-100.00,ENE,59,3.0,6.0,43,0.00,,,0.00,0.000000,,2013-06-30 12:01:00,
2013-06-30 05:11:00,80.0,55.0,-100.00,ENE,59,3.0,6.0,43,0.00,,,0.00,0.000000,,2013-06-30 12:11:00,
2013-06-30 05:43:00,78.0,56.0,-100.00,NE,40,2.0,4.0,47,0.00,,,0.00,0.000000,,2013-06-30 12:43:00,
2013-06-30 05:52:00,78.0,56.0,-100.00,NE,40,2.0,4.0,47,0.00,,,0.00,0.000000,,2013-06-30 12:52:00,
2013-06-30 06:02:00,78.0,56.0,-100.00,NE,40,2.0,4.0,47,0.00,,,0.00,0.000000,,2013-06-30 13:02:00,
2013-06-30 06:12:00,78.0,56.0,-100.00,NE,40,2.0,4.0,47,0.00,,,0.00,0.000000,,2013-06-30 13:12:00,
2013-06-30 06:44:00,79.0,56.0,-100.00,NE,35,3.0,4.0,45,0.00,,,0.00,9.000000,,2013-06-30 13:44:00,
2013-06-30 06:53:00,79.0,56.0,-100.00,NE,35,3.0,4.0,45,0.00,,,0.00,9.000000,,2013-06-30 13:53:00,
2013-06-30 07:02:00,79.0,56.0,-100.00,NE,35,3.0,4.0,45,0.00,,,0.00,9.000000,,2013-06-30 14:02:00,
2013-06-30 07:11:00,79.0,56.0,-100.00,NE,35,3.0,4.0,45,0.00,,,0.00,9.000000,,2013-06-30 14:11:00,
2013-06-30 08:02:00,84.0,58.0,-100.00,NE,43,2.0,4.0,42,0.00,,,0.00,94.000000,,2013-06-30 15:02:00,
2013-06-30 08:12:00,84.0,58.0,-100.00,NE,43,2.0,4.0,42,0.00,,,0.00,94.000000,,2013-06-30 15:12:00,
2013-06-30 09:53:00,95.0,54.0,-100.00,WSW,254,5.0,10.0,25,0.00,,,0.00,448.000000,,2013-06-30 16:53:00,
2013-06-30 10:01:00,95.0,54.0,-100.00,WSW,254,5.0,10.0,25,0.00,,,0.00,448.000000,,2013-06-30 17:01:00,
2013-06-30 10:11:00,95.0,54.0,-100.00,WSW,254,5.0,10.0,25,0.00,,,0.00,448.000000,,2013-06-30 17:11:00,
2013-06-30 10:34:00,98.0,53.0,-100.00,SW,236,6.0,12.0,22,0.00,,,-99.99,645.000000,,2013-06-30 17:34:00,
2013-06-30 10:43:00,98.0,53.0,-100.00,SW,236,6.0,12.0,22,0.00,,,-99.99,645.000000,,2013-06-30 17:43:00,
2013-06-30 10:52:00,98.0,53.0,-100.00,SW,236,6.0,12.0,22,0.00,,,-99.99,645.000000,,2013-06-30 17:52:00,
2013-06-30 11:01:00,98.0,53.0,-100.00,SW,236,6.0,12.0,22,0.00,,,-99.99,645.000000,,2013-06-30 18:01:00,
2013-06-30 11:12:00,98.0,53.0,-100.00,SW,236,6.0,12.0,22,0.00,,,-99.99,645.000000,,2013-06-30 18:12:00,
2013-06-30 11:34:00,100.0,53.0,-100.00,WSW,250,7.0,12.0,21,0.00,,,0.00,793.000000,,2013-06-30 18:34:00,
2013-06-30 11:43:00,100.0,53.0,-100.00,WSW,250,7.0,12.0,21,0.00,,,0.00,793.000000,,2013-06-30 18:43:00,
2013-06-30 11:53:00,100.0,53.0,-100.00,WSW,250,7.0,12.0,21,0.00,,,0.00,793.000000,,2013-06-30 18:53:00,
2013-06-30 12:01:00,100.0,53.0,-100.00,WSW,250,7.0,12.0,21,0.00,,,0.00,793.000000,,2013-06-30 19:01:00,
2013-06-30 12:11:00,100.0,53.0,-100.00,WSW,250,7.0,12.0,21,0.00,,,0.00,793.000000,,2013-06-30 19:11:00,
2013-06-30 12:43:00,102.0,52.0,-100.00,WSW,250,6.0,11.0,19,0.00,,,-99.99,895.000000,,2013-06-30 19:43:00,
2013-06-30 12:53:00,102.0,52.0,-100.00,WSW,250,6.0,11.0,19,0.00,,,-99.99,895.000000,,2013-06-30 19:53:00,
2013-06-30 13:01:00,102.0,52.0,-100.00,WSW,250,6.0,11.0,19,0.00,,,-99.99,895.000000,,2013-06-30 20:01:00,
2013-06-30 13:11:00,102.0,52.0,-100.00,WSW,250,6.0,11.0,19,0.00,,,-99.99,895.000000,,2013-06-30 20:11:00,
2013-06-30 13:42:00,104.0,54.0,-100.00,West,261,6.0,12.0,19,0.00,,,0.00,934.000000,,2013-06-30 20:42:00,
2013-06-30 13:52:00,104.0,54.0,-100.00,West,261,6.0,12.0,19,0.00,,,0.00,934.000000,,2013-06-30 20:52:00,
2013-06-30 14:01:00,104.0,54.0,-100.00,West,261,6.0,12.0,19,0.00,,,0.00,934.000000,,2013-06-30 21:01:00,
2013-06-30 14:11:00,104.0,54.0,-100.00,West,261,6.0,12.0,19,0.00,,,0.00,934.000000,,2013-06-30 21:11:00,
2013-06-30 14:43:00,103.0,51.0,-100.00,WSW,256,7.0,13.0,18,0.00,,,0.00,913.000000,,2013-06-30 21:43:00,
2013-06-30 14:53:00,103.0,51.0,-100.00,WSW,256,7.0,13.0,18,0.00,,,0.00,913.000000,,2013-06-30 21:53:00,
2013-06-30 15:01:00,103.0,51.0,-100.00,WSW,256,7.0,13.0,18,0.00,,,0.00,913.000000,,2013-06-30 22:01:00,
2013-06-30 15:11:00,103.0,51.0,-100.00,WSW,256,7.0,13.0,18,0.00,,,0.00,913.000000,,2013-06-30 22:11:00,
2013-06-30 15:43:00,104.0,54.0,-100.00,WSW,254,6.0,12.0,19,0.00,,,0.00,793.000000,,2013-06-30 22:43:00,
2013-06-30 15:53:00,104.0,54.0,-100.00,WSW,254,6.0,12.0,19,0.00,,,0.00,793.000000,,2013-06-30 22:53:00,
2013-06-30 16:01:00,104.0,54.0,-100.00,WSW,254,6.0,12.0,19,0.00,,,0.00,793.000000,,2013-06-30 23:01:00,
2013-06-30 16:11:00,104.0,54.0,-100.00,WSW,254,6.0,12.0,19,0.00,,,0.00,793.000000,,2013-06-30 23:11:00,
2013-06-30 16:33:00,104.0,54.0,-100.00,WSW,250,6.0,12.0,19,0.00,,,0.00,688.000000,,2013-06-30 23:33:00,
2013-06-30 16:44:00,104.0,54.0,-100.00,WSW,250,6.0,12.0,19,0.00,,,0.00,688.000000,,2013-06-30 23:44:00,
2013-06-30 16:53:00,104.0,54.0,-100.00,WSW,250,6.0,12.0,19,0.00,,,0.00,688.000000,,2013-06-30 23:53:00,
2013-06-30 17:01:00,104.0,54.0,-100.00,WSW,250,6.0,12.0,19,0.00,,,0.00,688.000000,,2013-07-01 00:01:00,
2013-06-30 17:11:00,104.0,54.0,-100.00,WSW,250,6.0,12.0,19,0.00,,,0.00,688.000000,,2013-07-01 00:11:00,
2013-06-30 17:33:00,105.0,57.0,-100.00,West,261,5.0,14.0,21,0.00,,,-99.99,556.000000,,2013-07-01 00:33:00,
2013-06-30 17:42:00,105.0,57.0,-100.00,West,261,5.0,14.0,21,0.00,,,-99.99,556.000000,,2013-07-01 00:42:00,
2013-06-30 17:52:00,105.0,57.0,-100.00,West,261,5.0,14.0,21,0.00,,,-99.99,556.000000,,2013-07-01 00:52:00,
2013-06-30 18:01:00,105.0,57.0,-100.00,West,261,5.0,14.0,21,0.00,,,-99.99,556.000000,,2013-07-01 01:01:00,
2013-06-30 18:11:00,105.0,57.0,-100.00,West,261,5.0,14.0,21,0.00,,,-99.99,556.000000,,2013-07-01 01:11:00,
2013-06-30 18:34:00,101.0,56.0,-100.00,WSW,247,6.0,11.0,23,0.00,,,0.00,323.000000,,2013-07-01 01:34:00,
2013-06-30 18:43:00,101.0,56.0,-100.00,WSW,247,6.0,11.0,23,0.00,,,0.00,323.000000,,2013-07-01 01:43:00,
2013-06-30 18:52:00,101.0,56.0,-100.00,WSW,247,6.0,11.0,23,0.00,,,0.00,323.000000,,2013-07-01 01:52:00,
2013-06-30 19:02:00,101.0,56.0,-100.00,WSW,247,6.0,11.0,23,0.00,,,0.00,323.000000,,2013-07-01 02:02:00,
2013-06-30 19:11:00,101.0,56.0,-100.00,WSW,247,6.0,11.0,23,0.00,,,0.00,323.000000,,2013-07-01 02:11:00,
2013-06-30 19:44:00,98.0,57.0,-100.00,WSW,256,3.0,10.0,26,0.00,,,0.00,152.000000,,2013-07-01 02:44:00,
2013-06-30 19:54:00,98.0,57.0,-100.00,WSW,256,3.0,10.0,26,0.00,,,0.00,152.000000,,2013-07-01 02:54:00,
2013-06-30 20:01:00,98.0,57.0,-100.00,WSW,256,3.0,10.0,26,0.00,,,0.00,152.000000,,2013-07-01 03:01:00,
2013-06-30 20:11:00,98.0,57.0,-100.00,WSW,256,3.0,10.0,26,0.00,,,0.00,152.000000,,2013-07-01 03:11:00,
2013-06-30 20:43:00,93.0,60.0,-100.00,SSW,203,1.0,6.0,33,0.00,,,0.00,25.000000,,2013-07-01 03:43:00,
2013-06-30 20:52:00,93.0,60.0,-100.00,SSW,203,1.0,6.0,33,0.00,,,0.00,25.000000,,2013-07-01 03:52:00,
2013-06-30 21:01:00,93.0,60.0,-100.00,SSW,203,1.0,6.0,33,0.00,,,0.00,25.000000,,2013-07-01 04:01:00,
2013-06-30 21:11:00,93.0,60.0,-100.00,SSW,203,1.0,6.0,33,0.00,,,0.00,25.000000,,2013-07-01 04:11:00,
2013-06-30 21:32:00,88.0,59.0,-100.00,NE,52,5.0,7.0,38,0.00,,,0.00,1.000000,,2013-07-01 04:32:00,
2013-06-30 21:43:00,88.0,59.0,-100.00,NE,52,5.0,7.0,38,0.00,,,0.00,1.000000,,2013-07-01 04:43:00,
2013-06-30 21:53:00,88.0,59.0,-100.00,NE,52,5.0,7.0,38,0.00,,,0.00,1.000000,,2013-07-01 04:53:00,
2013-06-30 22:01:00,88.0,59.0,-100.00,NE,52,5.0,7.0,38,0.00,,,0.00,1.000000,,2013-07-01 05:01:00,
2013-06-30 22:11:00,88.0,59.0,-100.00,NE,52,5.0,7.0,38,0.00,,,0.00,1.000000,,2013-07-01 05:11:00,
2013-06-30 22:33:00,86.0,60.0,-100.00,ENE,72,5.0,7.0,41,0.00,,,0.00,0.000000,,2013-07-01 05:33:00,
2013-06-30 22:42:00,86.0,60.0,-100.00,ENE,72,5.0,7.0,41,0.00,,,0.00,0.000000,,2013-07-01 05:42:00,
2013-06-30 22:52:00,86.0,60.0,-100.00,ENE,72,5.0,7.0,41,0.00,,,0.00,0.000000,,2013-07-01 05:52:00,
2013-06-30 23:02:00,86.0,60.0,-100.00,ENE,72,5.0,7.0,41,0.00,,,0.00,0.000000,,2013-07-01 06:02:00,
2013-06-30 23:12:00,86.0,60.0,-100.00,ENE,72,5.0,7.0,41,0.00,,,0.00,0.000000,,2013-07-01 06:12:00,
2013-06-30 23:43:00,85.0,60.0,-100.00,East,89,2.0,7.0,43,0.00,,,0.00,0.000000,,2013-07-01 06:43:00,
2013-06-30 23:53:00,85.0,60.0,-100.00,East,89,2.0,7.0,43,0.00,,,0.00,0.000000,,2013-07-01 06:53:00,